ADDS METAR Data INFO
IDs: Format: Raw Decoded Include TAF

Data at: 0300 UTC 17 Jan 2018

KEHR 170256Z AUTO 32006KT 9SM -SN OVC049 M13/M17 A3068 RMK AO2 SLP402 P0000 60000 T11331167 53003 FZRANO
KEHR 170156Z AUTO 29008KT 9SM -SN BKN049 M13/M17 A3068 RMK AO2 SLP402 P0000 T11331167 FZRANO
KEHR 170056Z AUTO 30007KT 9SM -SN SCT049 M13/M17 A3067 RMK AO2 SLP400 P0000 T11331172 FZRANO
KEHR 162356Z AUTO 33005KT 9SM -SN CLR M14/M17 A3067 RMK AO2 SNB2259 SLP400 P0000 60000 T11391172 11106 21139 53010 FZRANO
KEHR 162256Z AUTO 31009KT 9SM SCT027 M13/M18 A3065 RMK AO2 SNB38E54 SLP394 P0000 T11331178 FZRANO
KEHR 162208Z AUTO 33005KT 10SM BKN027 OVC032 M13/M18 A3065 RMK AO2 FZRANO
KEHR 162156Z AUTO 32005KT 10SM OVC031 M13/M18 A3065 RMK AO2 SLP391 T11281183 FZRANO
KEHR 162056Z AUTO 33006KT 10SM CLR M12/M19 A3064 RMK AO2 SLP389 T11171189 55002 FZRANO
KEHR 161956Z AUTO 31009KT 10SM CLR M11/M18 A3063 RMK AO2 SLP386 T11111183 FZRANO
KEHR 161856Z AUTO 31007KT 10SM CLR M11/M18 A3063 RMK AO2 SLP386 T11111183 FZRANO
KEHR 161756Z AUTO 30008KT 10SM CLR M11/M19 A3065 RMK AO2 SLP391 T11111189 11111 21161 58008 FZRANO TSNO
KEHR 161656Z AUTO 28008KT 10SM CLR M11/M18 A3067 RMK AO2 SLP398 T11111183 FZRANO
KEHR 161556Z AUTO 30009KT 9SM CLR M12/M18 A3068 RMK AO2 SLP403 T11171178 FZRANO
KEHR 161456Z AUTO 30007KT 10SM CLR M13/M18 A3067 RMK AO2 SLP399 T11331178 51013 FZRANO
KEHR 161356Z AUTO 29009KT 10SM CLR M16/M20 A3066 RMK AO2 SLP396 T11611200 FZRANO
KEHR 161256Z AUTO 31006KT 10SM CLR M15/M19 A3065 RMK AO2 SLP394 T11501194 FZRANO
KEHR 161156Z AUTO 32009KT 10SM CLR M15/M19 A3063 RMK AO2 SLP386 70004 T11501189 11106 21150 53014 FZRANO
KEHR 161056Z AUTO 32008KT 10SM FEW110 M14/M18 A3061 RMK AO2 SLP380 T11391183 FZRANO
KEHR 160956Z AUTO 32010KT 10SM CLR M13/M18 A3059 RMK AO2 SLP374 T11281178 FZRANO
KEHR 160856Z AUTO 32009KT 10SM CLR M12/M17 A3059 RMK AO2 SLP372 T11221172 51017 FZRANO
KEHR 160756Z AUTO 32011KT 10SM CLR M12/M17 A3058 RMK AO2 SLP367 T11171172 FZRANO
KEHR 160656Z AUTO 32009KT 10SM CLR M11/M16 A3056 RMK AO2 SLP362 T11111161 FZRANO
KEHR 160611Z AUTO 31013KT 10SM FEW029 M11/M16 A3055 RMK AO2 FZRANO
KEHR 160604Z AUTO 31013KT 10SM BKN029 M11/M16 A3055 RMK AO2 FZRANO
KEHR 160545Z AUTO 33011KT 10SM BKN029 M11/M15 A3055 RMK AO2 FZRANO
KEHR 160456Z AUTO 32009KT 10SM SCT035 M09/M14 A3053 RMK AO2 SNB08E18 SLP353 P0000 T10891139 FZRANO
KEHR 160356Z AUTO 32010KT 10SM FEW026 M08/M13 A3052 RMK AO2 SNE19 SLP349 P0000 T10831128 FZRANO
KEHR 160256Z AUTO 32007KT 9SM -SN CLR M08/M12 A3051 RMK AO2 SNB05 SLP345 P0000 60000 T10781122 51025 FZRANO
KEHR 160156Z AUTO 33006KT 10SM SCT039 M07/M12 A3049 RMK AO2 SNE26 SLP338 P0000 T10721122 FZRANO
KEHR 160056Z AUTO 31009KT 6SM -SN CLR M07/M12 A3046 RMK AO2 SLP329 P0000 T10721117 FZRANO
KEHR 152356Z AUTO 31010KT 9SM -SN FEW023 M07/M11 A3043 RMK AO2 SLP319 P0000 60002 T10671111 11011 21067 51026 FZRANO
KEHR 152308Z AUTO 31013KT 5SM -SN SCT027 M06/M09 A3041 RMK AO2 P0000 FZRANO
KEHR 152256Z AUTO 31010KT 3SM -SN BKN025 BKN029 M06/M09 A3041 RMK AO2 SLP311 P0000 T10611094 FZRANO
KEHR 152232Z AUTO 30009KT 3SM -SN SCT015 BKN024 M05/M08 A3040 RMK AO2 P0000 FZRANO
KEHR 152218Z AUTO 31012KT 1 3/4SM -SN SCT015 OVC022 M05/M08 A3040 RMK AO2 P0000 FZRANO
KEHR 152156Z AUTO 30011KT 6SM -SN OVC022 M04/M07 A3039 RMK AO2 SLP303 P0000 T10391067 FZRANO
KEHR 152136Z AUTO 31012KT 4SM -SN OVC020 M04/M07 A3037 RMK AO2 P0000 FZRANO
KEHR 152106Z AUTO 32012KT 2SM -SN BR SCT009 OVC016 M03/M05 A3036 RMK AO2 P0000 FZRANO
KEHR 152056Z AUTO 31011KT 1 1/4SM -SN BR BKN009 OVC014 M02/M04 A3036 RMK AO2 CIG 006V013 SLP291 P0001 60002 T10221039 53016 FZRANO
KEHR 152048Z AUTO 29013KT 1 1/2SM -SN BR OVC009 M01/M03 A3035 RMK AO2 CIG 005V014 P0001 FZRANO
KEHR 152033Z AUTO 26006KT 2 1/2SM -SN BR BKN009 OVC013 M01/M03 A3034 RMK AO2 CIG 005V011 P0000 FZRANO
KEHR 152024Z AUTO 25008KT 1 1/2SM -SN BR OVC009 M01/M03 A3033 RMK AO2 CIG 005V014 P0000 FZRANO
KEHR 152013Z AUTO 25007KT 1SM -SN BR OVC009 M01/M03 A3033 RMK AO2 CIG 007V011 P0000 FZRANO
KEHR 152004Z AUTO 24008KT 1 1/4SM -SN BR OVC011 M01/M03 A3032 RMK AO2 CIG 007V014 P0000 FZRANO
KEHR 151956Z AUTO 24008KT 2SM -SN BR OVC011 M01/M03 A3032 RMK AO2 SLP280 P0000 T10111028 FZRANO
KEHR 151954Z AUTO 25008KT 3SM -SN BR OVC011 M01/M03 A3032 RMK AO2 P0000 FZRANO
KEHR 151945Z AUTO 24007KT 2SM -SN BR SCT007 OVC014 M02/M03 A3032 RMK AO2 P0000 FZRANO
KEHR 151913Z AUTO 23010KT 1 1/4SM -SN BR BKN007 OVC014 M02/M03 A3031 RMK AO2 P0000 FZRANO
KEHR 151906Z AUTO 23010KT 1SM -SN BR BKN007 OVC014 M02/M03 A3031 RMK AO2 P0000 FZRANO
KEHR 151856Z AUTO 23010KT 1SM -SN BR SCT009 OVC016 M02/M03 A3031 RMK AO2 SLP275 P0001 T10171033 FZRANO
KEHR 151820Z AUTO 24010KT 1 1/4SM -SN BR BKN009 OVC016 M02/M03 A3030 RMK AO2 CIG 007V014 P0000 FZRANO
KEHR 151812Z AUTO 23010KT 2SM -SN BR BKN009 BKN016 OVC025 M02/M03 A3030 RMK AO2 P0000 FZRANO
KEHR 151756Z AUTO 23013KT 1 1/4SM -SN BR BKN009 OVC016 M02/M04 A3030 RMK AO2 CIG 007V012 SLP273 P0001 60002 T10171039 11017 21039 58006 FZRANO
KEHR 151729Z AUTO 24011KT 1 1/4SM -SN BR BKN009 BKN023 OVC028 M02/M04 A3032 RMK AO2 CIG 006V014 P0001 FZRANO
KEHR 151707Z AUTO 23011KT 3/4SM -SN BR BKN009 OVC015 M03/M04 A3033 RMK AO2 CIG 006V011 P0001 FZRANO TSNO
KEHR 151656Z AUTO 22010KT 1SM -SN BR SCT009 OVC015 M03/M04 A3032 RMK AO2 SLP282 P0001 T10281039 FZRANO
KEHR 151645Z AUTO 22012KT 1 1/4SM -SN BR FEW009 BKN015 OVC019 M03/M04 A3032 RMK AO2 P0001 FZRANO
KEHR 151556Z AUTO 22012KT 1SM -SN BR OVC013 M03/M04 A3032 RMK AO2 SLP280 P0000 T10331044 FZRANO
KEHR 151524Z AUTO 22013KT 1SM -SN BR OVC011 M03/M05 A3031 RMK AO2 P0000 FZRANO